CPX103 Details

Departure: Ted Stevens Anchorage International Airport (PANC)
Arrival: Huntsville International Airport (KHSV) at N/A
Route: TED YESKA NCA13 YXY J515 YYE J537 YPE J601 XD YWV J475 VLN J483 MOT ABR Q19 DSM J45 IRK FAM J151 VUZ
Notes:


Current Weather Information
PANC 171753Z 34018G25KT 10SM FEW200 17/03 A3019 RMK AO2 PK WND 33026/1712 SLP222 T01670033 10167 20139 51018
KHSV 171753Z VRB03KT 10SM CLR 34/17 A3001 RMK AO2 SLP153 T03390167 10339 20206 58014 $